sensor_id;sensor_type;location;lat;lon;timestamp;P1;P2;P0
64613;PMS5003;51025;37.772;-122.432;2023-05-01T00:00:59;6;4;
64613;PMS5003;51025;37.772;-122.432;2023-05-01T00:03:27;15;11;
64613;PMS5003;51025;37.772;-122.432;2023-05-01T00:05:58;8;6;
64613;PMS5003;51025;37.772;-122.432;2023-05-01T00:08:28;8;6;
64613;PMS5003;51025;37.772;-122.432;2023-05-01T00:10:56;9;9;
64613;PMS5003;51025;37.772;-122.432;2023-05-01T00:13:28;13;8;
64613;PMS5003;51025;37.772;-122.432;2023-05-01T00:15:56;8;7;
64613;PMS5003;51025;37.772;-122.432;2023-05-01T00:18:24;6;6;
64613;PMS5003;51025;37.772;-122.432;2023-05-01T00:20:52;9;6;
64613;PMS5003;51025;37.772;-122.432;2023-05-01T00:23:21;12;10;
64613;PMS5003;51025;37.772;-122.432;2023-05-01T00:25:49;12;9;
64613;PMS5003;51025;37.772;-122.432;2023-05-01T00:28:18;8;7;
64613;PMS5003;51025;37.772;-122.432;2023-05-01T00:30:46;9;4;
64613;PMS5003;51025;37.772;-122.432;2023-05-01T00:33:14;10;6;
64613;PMS5003;51025;37.772;-122.432;2023-05-01T00:35:43;8;7;
64613;PMS5003;51025;37.772;-122.432;2023-05-01T00:38:11;8;4;
64613;PMS5003;51025;37.772;-122.432;2023-05-01T00:40:42;8;5;
64613;PMS5003;51025;37.772;-122.432;2023-05-01T00:43:12;8;8;
64613;PMS5003;51025;37.772;-122.432;2023-05-01T00:45:41;12;8;
64613;PMS5003;51025;37.772;-122.432;2023-05-01T00:48:11;11;7;
64613;PMS5003;51025;37.772;-122.432;2023-05-01T00:50:40;11;6;
64613;PMS5003;51025;37.772;-122.432;2023-05-01T00:53:11;14;7;
64613;PMS5003;51025;37.772;-122.432;2023-05-01T00:55:39;9;7;
64613;PMS5003;51025;37.772;-122.432;2023-05-01T00:58:09;9;8;
64613;PMS5003;51025;37.772;-122.432;2023-05-01T01:00:37;7;7;
64613;PMS5003;51025;37.772;-122.432;2023-05-01T01:03:06;8;7;
64613;PMS5003;51025;37.772;-122.432;2023-05-01T01:05:36;7;5;
64613;PMS5003;51025;37.772;-122.432;2023-05-01T01:08:13;6;4;
64613;PMS5003;51025;37.772;-122.432;2023-05-01T01:10:52;8;5;
64613;PMS5003;51025;37.772;-122.432;2023-05-01T01:13:27;18;12;
64613;PMS5003;51025;37.772;-122.432;2023-05-01T01:16:02;9;3;
64613;PMS5003;51025;37.772;-122.432;2023-05-01T01:18:36;9;7;
64613;PMS5003;51025;37.772;-122.432;2023-05-01T01:21:13;16;11;
64613;PMS5003;51025;37.772;-122.432;2023-05-01T01:24:02;8;7;
64613;PMS5003;51025;37.772;-122.432;2023-05-01T01:26:51;12;9;
64613;PMS5003;51025;37.772;-122.432;2023-05-01T01:29:41;9;7;
64613;PMS5003;51025;37.772;-122.432;2023-05-01T01:32:26;12;11;
64613;PMS5003;51025;37.772;-122.432;2023-05-01T01:35:15;9;8;
64613;PMS5003;51025;37.772;-122.432;2023-05-01T01:37:47;11;5;
64613;PMS5003;51025;37.772;-122.432;2023-05-01T01:40:23;9;4;
64613;PMS5003;51025;37.772;-122.432;2023-05-01T01:43:01;11;7;
64613;PMS5003;51025;37.772;-122.432;2023-05-01T01:45:33;10;8;
64613;PMS5003;51025;37.772;-122.432;2023-05-01T01:48:05;12;7;
64613;PMS5003;51025;37.772;-122.432;2023-05-01T01:50:39;16;10;
64613;PMS5003;51025;37.772;-122.432;2023-05-01T01:53:08;9;5;
64613;PMS5003;51025;37.772;-122.432;2023-05-01T01:55:40;8;6;
64613;PMS5003;51025;37.772;-122.432;2023-05-01T01:58:11;9;6;
64613;PMS5003;51025;37.772;-122.432;2023-05-01T02:00:41;10;6;
64613;PMS5003;51025;37.772;-122.432;2023-05-01T02:03:11;23;23;
64613;PMS5003;51025;37.772;-122.432;2023-05-01T02:05:40;44;38;
64613;PMS5003;51025;37.772;-122.432;2023-05-01T02:08:09;54;49;
64613;PMS5003;51025;37.772;-122.432;2023-05-01T02:10:39;59;51;
64613;PMS5003;51025;37.772;-122.432;2023-05-01T02:13:09;53;48;
64613;PMS5003;51025;37.772;-122.432;2023-05-01T02:15:39;42;38;
64613;PMS5003;51025;37.772;-122.432;2023-05-01T02:18:08;41;35;
64613;PMS5003;51025;37.772;-122.432;2023-05-01T02:20:38;32;29;
64613;PMS5003;51025;37.772;-122.432;2023-05-01T02:23:08;23;22;
64613;PMS5003;51025;37.772;-122.432;2023-05-01T02:25:38;28;26;
64613;PMS5003;51025;37.772;-122.432;2023-05-01T02:28:09;25;19;
64613;PMS5003;51025;37.772;-122.432;2023-05-01T02:30:39;23;16;
64613;PMS5003;51025;37.772;-122.432;2023-05-01T02:33:08;21;21;
64613;PMS5003;51025;37.772;-122.432;2023-05-01T02:35:41;16;13;
64613;PMS5003;51025;37.772;-122.432;2023-05-01T02:38:11;10;10;
64613;PMS5003;51025;37.772;-122.432;2023-05-01T02:40:40;16;13;
64613;PMS5003;51025;37.772;-122.432;2023-05-01T02:43:14;16;13;
64613;PMS5003;51025;37.772;-122.432;2023-05-01T02:45:45;12;10;
64613;PMS5003;51025;37.772;-122.432;2023-05-01T02:48:17;10;8;
64613;PMS5003;51025;37.772;-122.432;2023-05-01T02:50:48;11;7;
64613;PMS5003;51025;37.772;-122.432;2023-05-01T02:53:17;8;7;
64613;PMS5003;51025;37.772;-122.432;2023-05-01T02:55:47;12;8;
64613;PMS5003;51025;37.772;-122.432;2023-05-01T02:58:15;8;7;
64613;PMS5003;51025;37.772;-122.432;2023-05-01T03:00:44;7;7;
64613;PMS5003;51025;37.772;-122.432;2023-05-01T03:03:14;9;8;
64613;PMS5003;51025;37.772;-122.432;2023-05-01T03:05:43;8;6;
64613;PMS5003;51025;37.772;-122.432;2023-05-01T03:08:12;7;6;
64613;PMS5003;51025;37.772;-122.432;2023-05-01T03:10:40;8;7;
64613;PMS5003;51025;37.772;-122.432;2023-05-01T03:13:08;12;8;
64613;PMS5003;51025;37.772;-122.432;2023-05-01T03:15:37;11;10;
64613;PMS5003;51025;37.772;-122.432;2023-05-01T03:18:06;8;5;
64613;PMS5003;51025;37.772;-122.432;2023-05-01T03:20:34;6;6;
64613;PMS5003;51025;37.772;-122.432;2023-05-01T03:23:02;9;5;
64613;PMS5003;51025;37.772;-122.432;2023-05-01T03:25:30;10;9;
64613;PMS5003;51025;37.772;-122.432;2023-05-01T03:27:59;6;6;
64613;PMS5003;51025;37.772;-122.432;2023-05-01T03:30:27;8;8;
64613;PMS5003;51025;37.772;-122.432;2023-05-01T03:32:55;9;8;
64613;PMS5003;51025;37.772;-122.432;2023-05-01T03:35:24;10;9;
64613;PMS5003;51025;37.772;-122.432;2023-05-01T03:37:52;7;7;
64613;PMS5003;51025;37.772;-122.432;2023-05-01T03:40:20;7;7;
64613;PMS5003;51025;37.772;-122.432;2023-05-01T03:42:48;14;9;
64613;PMS5003;51025;37.772;-122.432;2023-05-01T03:45:17;7;7;
64613;PMS5003;51025;37.772;-122.432;2023-05-01T03:47:45;15;12;
64613;PMS5003;51025;37.772;-122.432;2023-05-01T03:50:13;13;11;
64613;PMS5003;51025;37.772;-122.432;2023-05-01T03:52:42;12;11;
64613;PMS5003;51025;37.772;-122.432;2023-05-01T03:55:10;12;11;
64613;PMS5003;51025;37.772;-122.432;2023-05-01T03:57:39;18;10;
64613;PMS5003;51025;37.772;-122.432;2023-05-01T04:00:08;11;9;
64613;PMS5003;51025;37.772;-122.432;2023-05-01T04:02:39;11;7;
64613;PMS5003;51025;37.772;-122.432;2023-05-01T04:05:07;11;9;
64613;PMS5003;51025;37.772;-122.432;2023-05-01T04:07:36;13;11;
64613;PMS5003;51025;37.772;-122.432;2023-05-01T04:10:05;7;7;
64613;PMS5003;51025;37.772;-122.432;2023-05-01T04:12:33;10;9;
64613;PMS5003;51025;37.772;-122.432;2023-05-01T04:15:02;13;10;
64613;PMS5003;51025;37.772;-122.432;2023-05-01T04:17:31;12;9;
64613;PMS5003;51025;37.772;-122.432;2023-05-01T04:20:01;11;9;
64613;PMS5003;51025;37.772;-122.432;2023-05-01T04:22:29;17;12;
64613;PMS5003;51025;37.772;-122.432;2023-05-01T04:24:58;14;13;
64613;PMS5003;51025;37.772;-122.432;2023-05-01T04:27:26;17;13;
64613;PMS5003;51025;37.772;-122.432;2023-05-01T04:29:55;10;10;
64613;PMS5003;51025;37.772;-122.432;2023-05-01T04:32:24;13;10;
64613;PMS5003;51025;37.772;-122.432;2023-05-01T04:34:52;13;13;
64613;PMS5003;51025;37.772;-122.432;2023-05-01T04:37:20;19;19;
64613;PMS5003;51025;37.772;-122.432;2023-05-01T04:39:49;13;10;
64613;PMS5003;51025;37.772;-122.432;2023-05-01T04:42:18;16;16;
64613;PMS5003;51025;37.772;-122.432;2023-05-01T04:44:47;15;11;
64613;PMS5003;51025;37.772;-122.432;2023-05-01T04:47:15;9;8;
64613;PMS5003;51025;37.772;-122.432;2023-05-01T04:49:43;9;8;
64613;PMS5003;51025;37.772;-122.432;2023-05-01T04:52:11;14;11;
64613;PMS5003;51025;37.772;-122.432;2023-05-01T04:54:39;12;10;
64613;PMS5003;51025;37.772;-122.432;2023-05-01T04:57:08;12;11;
64613;PMS5003;51025;37.772;-122.432;2023-05-01T04:59:36;11;9;
64613;PMS5003;51025;37.772;-122.432;2023-05-01T05:02:04;12;12;
64613;PMS5003;51025;37.772;-122.432;2023-05-01T05:04:33;20;16;
64613;PMS5003;51025;37.772;-122.432;2023-05-01T05:07:01;13;12;
64613;PMS5003;51025;37.772;-122.432;2023-05-01T05:09:32;17;16;
64613;PMS5003;51025;37.772;-122.432;2023-05-01T05:12:00;14;11;
64613;PMS5003;51025;37.772;-122.432;2023-05-01T05:14:28;16;14;
64613;PMS5003;51025;37.772;-122.432;2023-05-01T05:16:57;17;16;
64613;PMS5003;51025;37.772;-122.432;2023-05-01T05:19:25;13;11;
64613;PMS5003;51025;37.772;-122.432;2023-05-01T05:21:53;21;17;
64613;PMS5003;51025;37.772;-122.432;2023-05-01T05:24:22;12;12;
64613;PMS5003;51025;37.772;-122.432;2023-05-01T05:26:51;12;10;
64613;PMS5003;51025;37.772;-122.432;2023-05-01T05:29:18;15;13;
64613;PMS5003;51025;37.772;-122.432;2023-05-01T05:31:47;14;12;
64613;PMS5003;51025;37.772;-122.432;2023-05-01T05:34:16;15;13;
64613;PMS5003;51025;37.772;-122.432;2023-05-01T05:36:44;18;16;
64613;PMS5003;51025;37.772;-122.432;2023-05-01T05:39:12;20;15;
64613;PMS5003;51025;37.772;-122.432;2023-05-01T05:41:41;18;13;
64613;PMS5003;51025;37.772;-122.432;2023-05-01T05:44:10;17;10;
64613;PMS5003;51025;37.772;-122.432;2023-05-01T05:46:38;17;11;
64613;PMS5003;51025;37.772;-122.432;2023-05-01T05:49:06;15;13;
64613;PMS5003;51025;37.772;-122.432;2023-05-01T05:51:34;17;12;
64613;PMS5003;51025;37.772;-122.432;2023-05-01T05:54:03;17;15;
64613;PMS5003;51025;37.772;-122.432;2023-05-01T05:56:31;17;16;
64613;PMS5003;51025;37.772;-122.432;2023-05-01T05:59:00;10;9;
64613;PMS5003;51025;37.772;-122.432;2023-05-01T06:01:28;11;10;
64613;PMS5003;51025;37.772;-122.432;2023-05-01T06:03:56;10;8;
64613;PMS5003;51025;37.772;-122.432;2023-05-01T06:06:24;11;8;
64613;PMS5003;51025;37.772;-122.432;2023-05-01T06:08:53;11;10;
64613;PMS5003;51025;37.772;-122.432;2023-05-01T06:11:21;8;7;
64613;PMS5003;51025;37.772;-122.432;2023-05-01T06:13:50;8;8;
64613;PMS5003;51025;37.772;-122.432;2023-05-01T06:16:18;8;6;
64613;PMS5003;51025;37.772;-122.432;2023-05-01T06:18:46;11;9;
64613;PMS5003;51025;37.772;-122.432;2023-05-01T06:21:15;12;8;
64613;PMS5003;51025;37.772;-122.432;2023-05-01T06:23:43;13;10;
64613;PMS5003;51025;37.772;-122.432;2023-05-01T06:26:11;8;6;
64613;PMS5003;51025;37.772;-122.432;2023-05-01T06:28:40;6;6;
64613;PMS5003;51025;37.772;-122.432;2023-05-01T06:31:08;10;8;
64613;PMS5003;51025;37.772;-122.432;2023-05-01T06:33:36;10;9;
64613;PMS5003;51025;37.772;-122.432;2023-05-01T06:36:05;14;13;
64613;PMS5003;51025;37.772;-122.432;2023-05-01T06:38:34;10;7;
64613;PMS5003;51025;37.772;-122.432;2023-05-01T06:41:03;9;6;
64613;PMS5003;51025;37.772;-122.432;2023-05-01T06:43:31;8;7;
64613;PMS5003;51025;37.772;-122.432;2023-05-01T06:45:59;7;7;
64613;PMS5003;51025;37.772;-122.432;2023-05-01T06:48:27;6;5;
64613;PMS5003;51025;37.772;-122.432;2023-05-01T06:50:55;8;6;
64613;PMS5003;51025;37.772;-122.432;2023-05-01T06:53:23;6;6;
64613;PMS5003;51025;37.772;-122.432;2023-05-01T06:55:51;6;6;
64613;PMS5003;51025;37.772;-122.432;2023-05-01T06:58:20;7;4;
64613;PMS5003;51025;37.772;-122.432;2023-05-01T07:00:48;11;7;
64613;PMS5003;51025;37.772;-122.432;2023-05-01T07:03:16;12;8;
64613;PMS5003;51025;37.772;-122.432;2023-05-01T07:05:45;5;5;
64613;PMS5003;51025;37.772;-122.432;2023-05-01T07:08:14;5;4;
64613;PMS5003;51025;37.772;-122.432;2023-05-01T07:10:42;7;4;
64613;PMS5003;51025;37.772;-122.432;2023-05-01T07:13:10;8;6;
64613;PMS5003;51025;37.772;-122.432;2023-05-01T07:15:38;12;8;
64613;PMS5003;51025;37.772;-122.432;2023-05-01T07:18:07;6;3;
64613;PMS5003;51025;37.772;-122.432;2023-05-01T07:20:35;6;3;
64613;PMS5003;51025;37.772;-122.432;2023-05-01T07:23:03;3;3;
64613;PMS5003;51025;37.772;-122.432;2023-05-01T07:25:31;6;6;
64613;PMS5003;51025;37.772;-122.432;2023-05-01T07:28:00;5;5;
64613;PMS5003;51025;37.772;-122.432;2023-05-01T07:30:28;5;5;
64613;PMS5003;51025;37.772;-122.432;2023-05-01T07:32:57;8;5;
64613;PMS5003;51025;37.772;-122.432;2023-05-01T07:35:25;12;8;
64613;PMS5003;51025;37.772;-122.432;2023-05-01T07:37:54;8;6;
64613;PMS5003;51025;37.772;-122.432;2023-05-01T07:40:22;7;5;
64613;PMS5003;51025;37.772;-122.432;2023-05-01T07:42:50;6;5;
64613;PMS5003;51025;37.772;-122.432;2023-05-01T07:45:19;4;3;
64613;PMS5003;51025;37.772;-122.432;2023-05-01T07:47:47;2;2;
64613;PMS5003;51025;37.772;-122.432;2023-05-01T07:50:15;5;3;
64613;PMS5003;51025;37.772;-122.432;2023-05-01T07:52:43;3;3;
64613;PMS5003;51025;37.772;-122.432;2023-05-01T07:55:11;3;3;
64613;PMS5003;51025;37.772;-122.432;2023-05-01T07:57:39;5;2;
64613;PMS5003;51025;37.772;-122.432;2023-05-01T08:00:08;4;4;
64613;PMS5003;51025;37.772;-122.432;2023-05-01T08:02:37;6;3;
64613;PMS5003;51025;37.772;-122.432;2023-05-01T08:05:06;4;4;
64613;PMS5003;51025;37.772;-122.432;2023-05-01T08:07:35;3;3;
64613;PMS5003;51025;37.772;-122.432;2023-05-01T08:10:03;2;2;
64613;PMS5003;51025;37.772;-122.432;2023-05-01T08:12:32;5;3;
64613;PMS5003;51025;37.772;-122.432;2023-05-01T08:15:00;6;6;
64613;PMS5003;51025;37.772;-122.432;2023-05-01T08:17:28;4;4;
64613;PMS5003;51025;37.772;-122.432;2023-05-01T08:19:56;3;3;
64613;PMS5003;51025;37.772;-122.432;2023-05-01T08:22:26;8;5;
64613;PMS5003;51025;37.772;-122.432;2023-05-01T08:24:54;7;4;
64613;PMS5003;51025;37.772;-122.432;2023-05-01T08:27:23;8;4;
64613;PMS5003;51025;37.772;-122.432;2023-05-01T08:29:52;3;3;
64613;PMS5003;51025;37.772;-122.432;2023-05-01T08:32:20;7;4;
64613;PMS5003;51025;37.772;-122.432;2023-05-01T08:34:48;3;2;
64613;PMS5003;51025;37.772;-122.432;2023-05-01T08:37:17;7;5;
64613;PMS5003;51025;37.772;-122.432;2023-05-01T08:39:45;2;2;
64613;PMS5003;51025;37.772;-122.432;2023-05-01T08:42:14;7;7;
64613;PMS5003;51025;37.772;-122.432;2023-05-01T08:44:42;4;2;
64613;PMS5003;51025;37.772;-122.432;2023-05-01T08:47:14;4;4;
64613;PMS5003;51025;37.772;-122.432;2023-05-01T08:49:44;5;4;
64613;PMS5003;51025;37.772;-122.432;2023-05-01T08:52:14;4;3;
64613;PMS5003;51025;37.772;-122.432;2023-05-01T08:54:44;3;2;
64613;PMS5003;51025;37.772;-122.432;2023-05-01T08:57:13;3;3;
64613;PMS5003;51025;37.772;-122.432;2023-05-01T08:59:43;3;3;
64613;PMS5003;51025;37.772;-122.432;2023-05-01T09:02:14;4;3;
64613;PMS5003;51025;37.772;-122.432;2023-05-01T09:04:43;4;4;
64613;PMS5003;51025;37.772;-122.432;2023-05-01T09:07:12;5;4;
64613;PMS5003;51025;37.772;-122.432;2023-05-01T09:09:41;2;2;
64613;PMS5003;51025;37.772;-122.432;2023-05-01T09:12:11;3;3;
64613;PMS5003;51025;37.772;-122.432;2023-05-01T09:14:47;3;3;
64613;PMS5003;51025;37.772;-122.432;2023-05-01T09:17:16;6;4;
64613;PMS5003;51025;37.772;-122.432;2023-05-01T09:19:46;7;4;
64613;PMS5003;51025;37.772;-122.432;2023-05-01T09:22:16;4;1;
64613;PMS5003;51025;37.772;-122.432;2023-05-01T09:24:45;5;4;
64613;PMS5003;51025;37.772;-122.432;2023-05-01T09:27:14;5;2;
64613;PMS5003;51025;37.772;-122.432;2023-05-01T09:29:43;5;4;
64613;PMS5003;51025;37.772;-122.432;2023-05-01T09:32:17;2;2;
64613;PMS5003;51025;37.772;-122.432;2023-05-01T09:34:48;5;2;
64613;PMS5003;51025;37.772;-122.432;2023-05-01T09:37:25;3;3;
64613;PMS5003;51025;37.772;-122.432;2023-05-01T09:40:03;4;3;
64613;PMS5003;51025;37.772;-122.432;2023-05-01T09:42:33;6;4;
64613;PMS5003;51025;37.772;-122.432;2023-05-01T09:45:04;6;3;
64613;PMS5003;51025;37.772;-122.432;2023-05-01T09:47:38;2;1;
64613;PMS5003;51025;37.772;-122.432;2023-05-01T09:50:07;3;3;
64613;PMS5003;51025;37.772;-122.432;2023-05-01T09:52:37;2;2;
64613;PMS5003;51025;37.772;-122.432;2023-05-01T09:55:14;2;2;
64613;PMS5003;51025;37.772;-122.432;2023-05-01T09:57:45;1;1;
64613;PMS5003;51025;37.772;-122.432;2023-05-01T10:00:15;4;3;
64613;PMS5003;51025;37.772;-122.432;2023-05-01T10:02:45;2;2;
64613;PMS5003;51025;37.772;-122.432;2023-05-01T10:05:14;3;3;
64613;PMS5003;51025;37.772;-122.432;2023-05-01T10:07:55;2;1;
64613;PMS5003;51025;37.772;-122.432;2023-05-01T10:10:24;6;4;
64613;PMS5003;51025;37.772;-122.432;2023-05-01T10:12:53;5;2;
64613;PMS5003;51025;37.772;-122.432;2023-05-01T10:15:21;2;0;
64613;PMS5003;51025;37.772;-122.432;2023-05-01T10:17:49;2;1;
64613;PMS5003;51025;37.772;-122.432;2023-05-01T10:20:18;5;3;
64613;PMS5003;51025;37.772;-122.432;2023-05-01T10:22:46;8;5;
64613;PMS5003;51025;37.772;-122.432;2023-05-01T10:25:15;3;2;
64613;PMS5003;51025;37.772;-122.432;2023-05-01T10:27:45;5;3;
64613;PMS5003;51025;37.772;-122.432;2023-05-01T10:30:14;4;4;
64613;PMS5003;51025;37.772;-122.432;2023-05-01T10:32:44;3;3;
64613;PMS5003;51025;37.772;-122.432;2023-05-01T10:35:14;6;2;
64613;PMS5003;51025;37.772;-122.432;2023-05-01T10:37:46;2;2;
64613;PMS5003;51025;37.772;-122.432;2023-05-01T10:40:48;2;1;
64613;PMS5003;51025;37.772;-122.432;2023-05-01T10:43:18;2;2;
64613;PMS5003;51025;37.772;-122.432;2023-05-01T10:45:49;1;1;
64613;PMS5003;51025;37.772;-122.432;2023-05-01T10:48:52;6;4;
64613;PMS5003;51025;37.772;-122.432;2023-05-01T10:51:21;3;3;
64613;PMS5003;51025;37.772;-122.432;2023-05-01T10:54:21;4;2;
64613;PMS5003;51025;37.772;-122.432;2023-05-01T10:56:50;5;1;
64613;PMS5003;51025;37.772;-122.432;2023-05-01T10:59:19;5;2;
64613;PMS5003;51025;37.772;-122.432;2023-05-01T11:01:48;1;1;
64613;PMS5003;51025;37.772;-122.432;2023-05-01T11:04:49;2;1;
64613;PMS5003;51025;37.772;-122.432;2023-05-01T11:07:18;5;3;
64613;PMS5003;51025;37.772;-122.432;2023-05-01T11:09:47;2;2;
64613;PMS5003;51025;37.772;-122.432;2023-05-01T11:12:47;1;1;
64613;PMS5003;51025;37.772;-122.432;2023-05-01T11:15:32;3;3;
64613;PMS5003;51025;37.772;-122.432;2023-05-01T11:18:01;3;2;
64613;PMS5003;51025;37.772;-122.432;2023-05-01T11:21:02;2;2;
64613;PMS5003;51025;37.772;-122.432;2023-05-01T11:23:31;2;2;
64613;PMS5003;51025;37.772;-122.432;2023-05-01T11:26:01;3;2;
64613;PMS5003;51025;37.772;-122.432;2023-05-01T11:28:30;6;3;
64613;PMS5003;51025;37.772;-122.432;2023-05-01T11:30:59;2;1;
64613;PMS5003;51025;37.772;-122.432;2023-05-01T11:33:28;3;2;
64613;PMS5003;51025;37.772;-122.432;2023-05-01T11:35:59;5;3;
64613;PMS5003;51025;37.772;-122.432;2023-05-01T11:38:28;6;4;
64613;PMS5003;51025;37.772;-122.432;2023-05-01T11:40:58;1;1;
64613;PMS5003;51025;37.772;-122.432;2023-05-01T11:43:29;3;2;
64613;PMS5003;51025;37.772;-122.432;2023-05-01T11:45:57;4;4;
64613;PMS5003;51025;37.772;-122.432;2023-05-01T11:48:26;3;3;
64613;PMS5003;51025;37.772;-122.432;2023-05-01T11:50:55;2;2;
64613;PMS5003;51025;37.772;-122.432;2023-05-01T11:53:24;3;2;
64613;PMS5003;51025;37.772;-122.432;2023-05-01T11:55:52;6;4;
64613;PMS5003;51025;37.772;-122.432;2023-05-01T11:58:36;2;2;
64613;PMS5003;51025;37.772;-122.432;2023-05-01T12:01:04;4;2;
64613;PMS5003;51025;37.772;-122.432;2023-05-01T12:03:40;2;1;
64613;PMS5003;51025;37.772;-122.432;2023-05-01T12:06:10;4;3;
64613;PMS5003;51025;37.772;-122.432;2023-05-01T12:08:43;3;1;
64613;PMS5003;51025;37.772;-122.432;2023-05-01T12:11:14;4;3;
64613;PMS5003;51025;37.772;-122.432;2023-05-01T12:13:43;9;2;
64613;PMS5003;51025;37.772;-122.432;2023-05-01T12:16:12;3;1;
64613;PMS5003;51025;37.772;-122.432;2023-05-01T12:18:41;2;1;
64613;PMS5003;51025;37.772;-122.432;2023-05-01T12:21:14;5;3;
64613;PMS5003;51025;37.772;-122.432;2023-05-01T12:23:43;5;2;
64613;PMS5003;51025;37.772;-122.432;2023-05-01T12:26:15;2;2;
64613;PMS5003;51025;37.772;-122.432;2023-05-01T12:28:53;5;3;
64613;PMS5003;51025;37.772;-122.432;2023-05-01T12:31:22;4;4;
64613;PMS5003;51025;37.772;-122.432;2023-05-01T12:33:53;3;3;
64613;PMS5003;51025;37.772;-122.432;2023-05-01T12:36:21;4;3;
64613;PMS5003;51025;37.772;-122.432;2023-05-01T12:38:54;6;2;
64613;PMS5003;51025;37.772;-122.432;2023-05-01T12:41:35;0;0;
64613;PMS5003;51025;37.772;-122.432;2023-05-01T12:44:16;2;1;
64613;PMS5003;51025;37.772;-122.432;2023-05-01T12:46:51;3;2;
64613;PMS5003;51025;37.772;-122.432;2023-05-01T12:49:21;3;2;
64613;PMS5003;51025;37.772;-122.432;2023-05-01T12:51:50;4;3;
64613;PMS5003;51025;37.772;-122.432;2023-05-01T12:54:21;4;4;
64613;PMS5003;51025;37.772;-122.432;2023-05-01T12:56:50;9;7;
64613;PMS5003;51025;37.772;-122.432;2023-05-01T12:59:19;4;3;
64613;PMS5003;51025;37.772;-122.432;2023-05-01T13:01:55;2;0;
64613;PMS5003;51025;37.772;-122.432;2023-05-01T13:04:25;5;3;
64613;PMS5003;51025;37.772;-122.432;2023-05-01T13:06:54;2;1;
64613;PMS5003;51025;37.772;-122.432;2023-05-01T13:09:22;2;2;
64613;PMS5003;51025;37.772;-122.432;2023-05-01T13:11:59;2;2;
64613;PMS5003;51025;37.772;-122.432;2023-05-01T13:14:28;3;3;
64613;PMS5003;51025;37.772;-122.432;2023-05-01T13:17:01;2;1;
64613;PMS5003;51025;37.772;-122.432;2023-05-01T13:19:30;3;1;
64613;PMS5003;51025;37.772;-122.432;2023-05-01T13:21:59;3;3;
64613;PMS5003;51025;37.772;-122.432;2023-05-01T13:24:34;3;2;
64613;PMS5003;51025;37.772;-122.432;2023-05-01T13:27:04;4;3;
64613;PMS5003;51025;37.772;-122.432;2023-05-01T13:29:33;1;1;
64613;PMS5003;51025;37.772;-122.432;2023-05-01T13:32:02;5;4;
64613;PMS5003;51025;37.772;-122.432;2023-05-01T13:34:31;4;2;
64613;PMS5003;51025;37.772;-122.432;2023-05-01T13:37:00;2;0;
64613;PMS5003;51025;37.772;-122.432;2023-05-01T13:39:29;2;2;
64613;PMS5003;51025;37.772;-122.432;2023-05-01T13:41:57;4;3;
64613;PMS5003;51025;37.772;-122.432;2023-05-01T13:44:27;2;2;
64613;PMS5003;51025;37.772;-122.432;2023-05-01T13:46:56;4;2;
64613;PMS5003;51025;37.772;-122.432;2023-05-01T13:49:24;5;3;
64613;PMS5003;51025;37.772;-122.432;2023-05-01T13:51:52;2;2;
64613;PMS5003;51025;37.772;-122.432;2023-05-01T13:54:20;2;2;
64613;PMS5003;51025;37.772;-122.432;2023-05-01T13:56:48;2;2;
64613;PMS5003;51025;37.772;-122.432;2023-05-01T13:59:17;6;2;
64613;PMS5003;51025;37.772;-122.432;2023-05-01T14:01:46;2;2;
64613;PMS5003;51025;37.772;-122.432;2023-05-01T14:04:14;3;2;
64613;PMS5003;51025;37.772;-122.432;2023-05-01T14:06:44;2;2;
64613;PMS5003;51025;37.772;-122.432;2023-05-01T14:09:13;3;2;
64613;PMS5003;51025;37.772;-122.432;2023-05-01T14:11:44;2;1;
64613;PMS5003;51025;37.772;-122.432;2023-05-01T14:14:14;1;1;
64613;PMS5003;51025;37.772;-122.432;2023-05-01T14:16:45;1;0;
64613;PMS5003;51025;37.772;-122.432;2023-05-01T14:19:15;3;2;
64613;PMS5003;51025;37.772;-122.432;2023-05-01T14:21:44;1;1;
64613;PMS5003;51025;37.772;-122.432;2023-05-01T14:24:13;0;0;
64613;PMS5003;51025;37.772;-122.432;2023-05-01T14:26:43;1;1;
64613;PMS5003;51025;37.772;-122.432;2023-05-01T14:29:14;2;2;
64613;PMS5003;51025;37.772;-122.432;2023-05-01T14:31:49;1;1;
64613;PMS5003;51025;37.772;-122.432;2023-05-01T14:34:17;6;3;
64613;PMS5003;51025;37.772;-122.432;2023-05-01T14:36:46;3;1;
64613;PMS5003;51025;37.772;-122.432;2023-05-01T14:39:14;3;3;
64613;PMS5003;51025;37.772;-122.432;2023-05-01T14:41:43;2;2;
64613;PMS5003;51025;37.772;-122.432;2023-05-01T14:44:11;7;4;
64613;PMS5003;51025;37.772;-122.432;2023-05-01T14:46:43;7;4;
64613;PMS5003;51025;37.772;-122.432;2023-05-01T14:49:16;4;2;
64613;PMS5003;51025;37.772;-122.432;2023-05-01T14:51:45;6;4;
64613;PMS5003;51025;37.772;-122.432;2023-05-01T14:54:14;7;4;
64613;PMS5003;51025;37.772;-122.432;2023-05-01T14:56:47;2;2;
64613;PMS5003;51025;37.772;-122.432;2023-05-01T14:59:15;5;4;
64613;PMS5003;51025;37.772;-122.432;2023-05-01T15:01:44;8;5;
64613;PMS5003;51025;37.772;-122.432;2023-05-01T15:04:12;8;7;
64613;PMS5003;51025;37.772;-122.432;2023-05-01T15:06:40;8;6;
64613;PMS5003;51025;37.772;-122.432;2023-05-01T15:09:08;3;3;
64613;PMS5003;51025;37.772;-122.432;2023-05-01T15:11:36;6;4;
64613;PMS5003;51025;37.772;-122.432;2023-05-01T15:14:05;6;4;
64613;PMS5003;51025;37.772;-122.432;2023-05-01T15:16:33;8;5;
64613;PMS5003;51025;37.772;-122.432;2023-05-01T15:19:01;7;5;
64613;PMS5003;51025;37.772;-122.432;2023-05-01T15:21:29;7;6;
64613;PMS5003;51025;37.772;-122.432;2023-05-01T15:23:58;6;5;
64613;PMS5003;51025;37.772;-122.432;2023-05-01T15:26:26;7;7;
64613;PMS5003;51025;37.772;-122.432;2023-05-01T15:28:54;8;8;
64613;PMS5003;51025;37.772;-122.432;2023-05-01T15:31:22;6;6;
64613;PMS5003;51025;37.772;-122.432;2023-05-01T15:33:50;12;8;
64613;PMS5003;51025;37.772;-122.432;2023-05-01T15:36:19;8;7;
64613;PMS5003;51025;37.772;-122.432;2023-05-01T15:38:47;4;4;
64613;PMS5003;51025;37.772;-122.432;2023-05-01T15:41:16;10;8;
64613;PMS5003;51025;37.772;-122.432;2023-05-01T15:43:44;7;6;
64613;PMS5003;51025;37.772;-122.432;2023-05-01T15:46:12;8;5;
64613;PMS5003;51025;37.772;-122.432;2023-05-01T15:48:40;7;6;
64613;PMS5003;51025;37.772;-122.432;2023-05-01T15:51:08;6;6;
64613;PMS5003;51025;37.772;-122.432;2023-05-01T15:53:36;7;7;
64613;PMS5003;51025;37.772;-122.432;2023-05-01T15:56:05;10;9;
64613;PMS5003;51025;37.772;-122.432;2023-05-01T15:58:34;4;3;
64613;PMS5003;51025;37.772;-122.432;2023-05-01T16:01:02;8;6;
64613;PMS5003;51025;37.772;-122.432;2023-05-01T16:03:30;4;4;
64613;PMS5003;51025;37.772;-122.432;2023-05-01T16:05:58;10;6;
64613;PMS5003;51025;37.772;-122.432;2023-05-01T16:08:26;7;5;
64613;PMS5003;51025;37.772;-122.432;2023-05-01T16:10:54;3;3;
64613;PMS5003;51025;37.772;-122.432;2023-05-01T16:13:23;3;3;